Time;durP1;ratioP1;P1;durP2;ratioP2;P2;SDS_P1;SDS_P2;PMS_P1;PMS_P2;Temp;Humidity;BMP_temperature;BMP_pressure;BME280_temperature;BME280_humidity;BME280_pressure;Samples;Min_cycle;Max_cycle;Signal;HPM_P1;HPM_P2
2023/05/12 00:00:58;;;;;;;39.30;19.10;;;;;;;12.63;100.00;101065.22;5072790;28;20585;-72
2023/05/12 00:03:24;;;;;;;37.78;19.92;;;;;;;12.67;100.00;101066.75;5088301;28;20608;-73
2023/05/12 00:05:51;;;;;;;40.38;20.98;;;;;;;12.68;100.00;101065.53;5090666;28;20055;-72
2023/05/12 00:08:17;;;;;;;41.60;21.55;;;;;;;12.69;100.00;101064.31;5068624;28;20041;-72
2023/05/12 00:10:44;;;;;;;36.78;18.58;;;;;;;12.69;100.00;101055.94;5090696;28;20496;-72
2023/05/12 00:13:10;;;;;;;35.25;18.30;;;;;;;12.70;100.00;101056.72;5069458;28;20047;-72
2023/05/12 00:15:37;;;;;;;43.58;22.27;;;;;;;12.70;100.00;101063.09;5089569;28;20055;-74
2023/05/12 00:18:03;;;;;;;42.42;21.02;;;;;;;12.66;100.00;101058.78;5086773;28;20112;-72
2023/05/12 00:20:30;;;;;;;41.47;22.08;;;;;;;12.68;100.00;101050.78;5091357;28;20043;-74
2023/05/12 00:22:56;;;;;;;42.58;21.02;;;;;;;12.65;100.00;101055.19;5089462;28;20059;-74
2023/05/12 00:25:23;;;;;;;46.50;24.05;;;;;;;12.70;100.00;101056.72;5090464;28;20052;-74
2023/05/12 00:27:50;;;;;;;45.47;22.27;;;;;;;12.69;100.00;101055.16;5085828;28;20056;-74
2023/05/12 00:30:16;;;;;;;42.80;23.55;;;;;;;12.66;100.00;101056.00;5088063;28;20048;-74
2023/05/12 00:32:43;;;;;;;45.83;23.13;;;;;;;12.67;100.00;101052.78;5086779;28;20685;-74
2023/05/12 00:35:09;;;;;;;45.20;23.83;;;;;;;12.69;100.00;101055.16;5089339;28;20113;-73
2023/05/12 00:37:36;;;;;;;48.30;24.85;;;;;;;12.68;100.00;101043.19;5088378;28;20063;-73
2023/05/12 00:40:03;;;;;;;46.55;24.88;;;;;;;12.70;100.00;101062.31;5088768;28;20415;-73
2023/05/12 00:42:32;;;;;;;40.88;21.80;;;;;;;12.68;100.00;101054.38;5089266;28;20528;-73
2023/05/12 00:44:59;;;;;;;47.38;25.35;;;;;;;12.63;100.00;101051.28;5085378;28;20056;-74
2023/05/12 00:47:25;;;;;;;46.30;24.23;;;;;;;12.65;100.00;101057.22;5089795;28;20048;-73
2023/05/12 00:49:52;;;;;;;47.05;25.17;;;;;;;12.67;100.00;101058.38;5090716;28;20043;-74
2023/05/12 00:52:19;;;;;;;46.50;25.83;;;;;;;12.68;100.00;101056.34;5070253;28;20058;-72
2023/05/12 00:54:47;;;;;;;45.47;25.77;;;;;;;12.65;100.00;101057.22;5090359;28;20052;-74
2023/05/12 00:57:14;;;;;;;40.58;20.17;;;;;;;12.65;100.00;101057.22;5090033;28;20040;-74
2023/05/12 00:59:40;;;;;;;46.72;23.83;;;;;;;12.69;100.00;101063.53;5087002;28;20122;-73
2023/05/12 01:02:07;;;;;;;49.60;27.30;;;;;;;12.68;100.00;101061.94;5089064;28;20494;-73
2023/05/12 01:04:37;;;;;;;48.25;23.38;;;;;;;12.71;100.00;101061.88;5083444;28;20720;-73
2023/05/12 01:07:18;;;;;;;52.63;26.50;;;;;;;12.69;100.00;101063.53;5070799;28;20058;-73
2023/05/12 01:09:44;;;;;;;46.60;25.38;;;;;;;12.68;100.00;101059.94;5087900;28;20044;-73
2023/05/12 01:12:11;;;;;;;46.45;24.17;;;;;;;12.64;100.00;101070.38;5086706;28;20047;-73
2023/05/12 01:14:40;;;;;;;47.53;24.40;;;;;;;12.62;100.00;101064.41;5088070;28;20067;-73
2023/05/12 01:17:11;;;;;;;49.58;25.00;;;;;;;12.57;100.00;101060.09;5088255;28;20059;-73
2023/05/12 01:19:41;;;;;;;37.88;20.27;;;;;;;12.64;100.00;101069.56;5084425;28;20045;-74
2023/05/12 01:22:09;;;;;;;47.33;25.63;;;;;;;12.62;100.00;101060.84;5086864;28;20059;-74
2023/05/12 01:24:45;;;;;;;44.20;22.40;;;;;;;12.61;100.00;101062.03;5089176;28;20108;-74
2023/05/12 01:27:14;;;;;;;46.97;23.95;;;;;;;12.60;100.00;101068.84;5086251;28;20510;-73
2023/05/12 01:29:42;;;;;;;49.28;26.65;;;;;;;12.57;100.00;101070.50;5084557;28;20657;-73
2023/05/12 01:32:09;;;;;;;45.85;25.77;;;;;;;12.52;100.00;101063.38;5088332;28;20039;-73
2023/05/12 01:34:38;;;;;;;41.85;20.75;;;;;;;12.57;100.00;101069.69;5071147;28;20585;-73
2023/05/12 01:37:04;;;;;;;44.20;24.40;;;;;;;12.57;100.00;101069.69;5071030;28;20051;-74
2023/05/12 01:39:31;;;;;;;44.33;23.88;;;;;;;12.53;100.00;101069.75;5087118;28;20047;-73
2023/05/12 01:41:57;;;;;;;48.78;26.33;;;;;;;12.55;100.00;101072.91;5090770;28;20085;-74
2023/05/12 01:44:24;;;;;;;47.47;26.98;;;;;;;12.52;100.00;101072.97;5095960;28;20048;-73
2023/05/12 01:46:50;;;;;;;50.08;28.52;;;;;;;12.52;100.00;101082.91;5088038;28;20052;-73
2023/05/12 01:49:17;;;;;;;49.80;26.83;;;;;;;12.53;100.00;101083.72;5088263;28;20048;-73
2023/05/12 01:51:44;;;;;;;44.83;24.52;;;;;;;12.48;100.00;101075.78;5086737;28;20566;-72
2023/05/12 01:54:10;;;;;;;48.05;26.38;;;;;;;12.48;100.00;101088.97;5086562;28;20055;-74
2023/05/12 01:56:36;;;;;;;45.33;23.80;;;;;;;12.45;100.00;101085.81;5089031;28;20090;-74
2023/05/12 01:59:03;;;;;;;47.58;27.55;;;;;;;12.42;100.00;101092.22;5088879;28;20063;-74
2023/05/12 02:01:31;;;;;;;46.47;24.73;;;;;;;12.40;100.00;101089.06;5067826;28;20060;-73
2023/05/12 02:03:58;;;;;;;44.70;22.75;;;;;;;12.40;100.00;101091.06;5088411;28;20048;-74
2023/05/12 02:06:25;;;;;;;43.78;23.90;;;;;;;12.35;100.00;101088.72;5087937;28;20083;-74
2023/05/12 02:08:52;;;;;;;50.00;24.20;;;;;;;12.36;100.00;101088.31;5087585;28;20048;-74
2023/05/12 02:11:18;;;;;;;51.42;24.80;;;;;;;12.39;100.00;101098.63;5086584;28;20043;-73
2023/05/12 02:13:45;;;;;;;47.38;24.13;;;;;;;12.44;100.00;101095.38;5087832;28;20048;-74
2023/05/12 02:16:12;;;;;;;46.10;25.17;;;;;;;12.40;100.00;101091.84;5086631;28;20047;-72
2023/05/12 02:18:38;;;;;;;44.08;22.10;;;;;;;12.24;100.00;101088.88;5088343;28;20048;-71
2023/05/12 02:21:06;;;;;;;41.78;20.92;;;;;;;12.25;100.00;101098.00;5087911;28;20084;-71
2023/05/12 02:23:32;;;;;;;41.53;21.15;;;;;;;12.23;100.00;101104.00;5070887;28;20056;-70
2023/05/12 02:25:59;;;;;;;41.42;21.13;;;;;;;12.35;100.00;101103.44;5087758;28;20048;-71
2023/05/12 02:28:25;;;;;;;42.17;21.35;;;;;;;12.23;100.00;101106.03;5087743;28;20056;-72
2023/05/12 02:30:53;;;;;;;38.92;19.52;;;;;;;12.23;100.00;101106.03;5088242;28;20059;-71
2023/05/12 02:33:21;;;;;;;40.55;20.25;;;;;;;12.30;100.00;101108.72;5087767;28;20545;-71
2023/05/12 02:35:48;;;;;;;41.75;20.90;;;;;;;12.36;100.00;101109.84;5086131;28;20047;-71
2023/05/12 02:38:15;;;;;;;35.05;18.38;;;;;;;12.19;100.00;101106.06;5088407;28;20086;-72
2023/05/12 02:40:41;;;;;;;38.60;18.27;;;;;;;12.14;100.00;101103.75;5086449;28;20059;-73
2023/05/12 02:43:08;;;;;;;32.38;17.77;;;;;;;12.15;100.00;101108.09;5086479;28;20062;-72
2023/05/12 02:45:35;;;;;;;33.65;17.70;;;;;;;12.09;100.00;101107.00;5088022;28;20067;-73
2023/05/12 02:48:01;;;;;;;32.20;16.35;;;;;;;12.08;100.00;101107.41;5086167;28;20075;-73
2023/05/12 02:50:28;;;;;;;32.00;16.15;;;;;;;12.09;100.00;101107.00;5087724;28;20052;-72
2023/05/12 02:52:55;;;;;;;32.88;17.15;;;;;;;12.06;100.00;101105.03;5089031;28;20494;-74
2023/05/12 02:55:22;;;;;;;35.50;17.65;;;;;;;12.11;100.00;101098.22;5085651;28;20052;-73
2023/05/12 02:57:48;;;;;;;31.27;15.32;;;;;;;12.07;100.00;101103.06;5087472;28;20167;-73
2023/05/12 03:00:15;;;;;;;31.58;16.52;;;;;;;12.08;100.00;101099.84;5087420;28;20075;-74
2023/05/12 03:02:41;;;;;;;29.48;15.63;;;;;;;12.08;100.00;101099.03;5087244;28;20502;-74
2023/05/12 03:05:08;;;;;;;31.83;15.40;;;;;;;12.06;100.00;101107.81;5087683;28;20071;-72
2023/05/12 03:07:35;;;;;;;33.03;15.88;;;;;;;12.08;100.00;101105.41;5085720;28;20139;-72
2023/05/12 03:10:01;;;;;;;29.38;15.40;;;;;;;12.08;100.00;101113.78;5066599;28;20138;-73
2023/05/12 03:12:28;;;;;;;29.75;15.55;;;;;;;12.06;100.00;101113.41;5086274;28;20055;-72
2023/05/12 03:14:58;;;;;;;28.13;14.13;;;;;;;12.06;100.00;101124.53;5086608;28;20060;-72
2023/05/12 03:17:25;;;;;;;27.60;13.63;;;;;;;12.04;100.00;101126.19;5086252;28;20051;-72
2023/05/12 03:19:54;;;;;;;26.55;13.80;;;;;;;12.00;100.00;101115.09;5084725;28;20051;-72
2023/05/12 03:22:21;;;;;;;27.38;14.43;;;;;;;12.02;100.00;101120.25;5080654;28;20063;-71
2023/05/12 03:24:47;;;;;;;29.92;14.65;;;;;;;11.99;100.00;101118.28;5067757;28;20417;-71
2023/05/12 03:27:14;;;;;;;29.75;14.38;;;;;;;11.99;100.00;101110.72;5084784;28;20054;-71
2023/05/12 03:29:40;;;;;;;28.35;14.35;;;;;;;11.99;100.00;101109.94;5086928;28;20056;-72
2023/05/12 03:32:07;;;;;;;30.17;13.20;;;;;;;11.95;100.00;101109.19;5086447;28;20059;-72
2023/05/12 03:34:34;;;;;;;28.80;15.25;;;;;;;11.97;100.00;101113.13;5085708;28;20054;-71
2023/05/12 03:37:00;;;;;;;26.75;12.50;;;;;;;11.96;100.00;101105.19;5067761;28;20051;-74
2023/05/12 03:39:27;;;;;;;27.50;14.07;;;;;;;11.92;100.00;101113.59;5087218;28;20062;-72
2023/05/12 03:41:53;;;;;;;29.52;13.40;;;;;;;11.94;100.00;101116.75;5085413;28;20054;-72
2023/05/12 03:44:20;;;;;;;24.92;13.40;;;;;;;11.96;100.00;101121.91;5087280;28;20390;-73
2023/05/12 03:46:46;;;;;;;27.60;14.65;;;;;;;11.92;100.00;101118.38;5084648;28;20062;-72
2023/05/12 03:49:13;;;;;;;26.38;13.60;;;;;;;11.91;100.00;101120.38;5087216;28;20044;-72
2023/05/12 03:51:40;;;;;;;26.55;13.32;;;;;;;11.91;100.00;101128.72;5087775;28;20079;-72
2023/05/12 03:54:06;;;;;;;29.73;15.18;;;;;;;11.94;100.00;101127.91;5085879;28;20541;-73
2023/05/12 03:56:33;;;;;;;27.92;15.90;;;;;;;11.92;100.00;101124.72;5086814;28;20773;-72
2023/05/12 03:58:59;;;;;;;26.20;13.75;;;;;;;11.95;100.00;101131.50;5084795;28;20052;-72
2023/05/12 04:01:25;;;;;;;25.40;12.40;;;;;;;11.88;100.00;101124.00;5086196;28;20059;-72
2023/05/12 04:03:52;;;;;;;27.65;13.27;;;;;;;11.92;100.00;101127.50;5086719;28;20055;-73
2023/05/12 04:06:19;;;;;;;26.08;13.48;;;;;;;11.92;100.00;101124.72;5085818;28;20081;-72
2023/05/12 04:08:45;;;;;;;25.13;13.32;;;;;;;11.93;100.00;101131.09;5086320;28;20071;-72
2023/05/12 04:11:12;;;;;;;28.27;13.75;;;;;;;11.94;100.00;101136.25;5078674;28;20044;-72
2023/05/12 04:13:39;;;;;;;26.58;13.45;;;;;;;11.92;100.00;101135.88;5084106;28;20047;-72
2023/05/12 04:16:05;;;;;;;24.88;12.93;;;;;;;11.94;100.00;101139.03;5082495;28;20854;-71
2023/05/12 04:18:34;;;;;;;25.15;12.80;;;;;;;11.94;100.00;101147.41;5087260;28;20052;-73
2023/05/12 04:21:01;;;;;;;28.55;12.88;;;;;;;11.96;100.00;101142.19;5068496;28;20056;-71
2023/05/12 04:23:28;;;;;;;25.85;12.65;;;;;;;11.95;100.00;101151.75;5070838;28;20055;-72
2023/05/12 04:25:55;;;;;;;26.27;13.75;;;;;;;11.94;100.00;101149.38;5086511;28;20060;-71
2023/05/12 04:28:21;;;;;;;23.75;11.95;;;;;;;11.96;100.00;101163.72;5084081;28;20051;-71
2023/05/12 04:30:48;;;;;;;26.75;13.32;;;;;;;11.96;100.00;101161.69;5083398;28;20048;-73
2023/05/12 04:33:14;;;;;;;26.98;12.27;;;;;;;11.95;100.00;101168.47;5085307;28;20059;-73
2023/05/12 04:35:41;;;;;;;24.75;11.80;;;;;;;11.97;100.00;101168.88;5089048;28;20066;-72
2023/05/12 04:38:08;;;;;;;22.38;11.73;;;;;;;12.00;100.00;101170.81;5069339;28;20056;-72
2023/05/12 04:40:34;;;;;;;22.48;11.55;;;;;;;12.02;100.00;101178.78;5089132;28;20052;-72
2023/05/12 04:43:01;;;;;;;22.30;11.27;;;;;;;12.03;100.00;101180.34;5089820;28;20062;-72
2023/05/12 04:45:27;;;;;;;22.75;11.82;;;;;;;12.04;100.00;101187.50;5089879;28;20052;-71
2023/05/12 04:47:55;;;;;;;22.23;10.82;;;;;;;12.01;100.00;101177.97;5088954;28;20056;-72
2023/05/12 04:50:21;;;;;;;20.08;10.40;;;;;;;12.04;100.00;101181.91;5088306;28;20559;-71
2023/05/12 04:52:51;;;;;;;22.10;10.02;;;;;;;12.09;100.00;101195.41;5090546;28;20142;-72
2023/05/12 04:55:20;;;;;;;21.50;11.60;;;;;;;12.09;100.00;101193.38;5089961;28;20407;-72
2023/05/12 04:57:47;;;;;;;19.83;10.07;;;;;;;12.06;100.00;101199.78;5090222;28;20139;-72
2023/05/12 05:00:14;;;;;;;21.13;11.43;;;;;;;12.06;100.00;101204.59;5089742;28;20071;-72
2023/05/12 05:02:40;;;;;;;19.13;9.35;;;;;;;12.11;100.00;101209.69;5088748;28;20067;-72
2023/05/12 05:05:08;;;;;;;19.45;10.43;;;;;;;12.13;100.00;101210.09;5088764;28;20052;-73
2023/05/12 05:07:34;;;;;;;17.67;8.77;;;;;;;12.17;100.00;101217.19;5085469;28;20059;-72
2023/05/12 05:10:01;;;;;;;18.02;8.75;;;;;;;12.17;100.00;101214.41;5089789;28;20131;-72
2023/05/12 05:12:27;;;;;;;18.40;8.73;;;;;;;12.20;100.00;101223.94;5089785;28;20044;-73
2023/05/12 05:14:54;;;;;;;17.02;8.80;;;;;;;12.17;100.00;101219.19;5089022;28;20048;-72
2023/05/12 05:17:21;;;;;;;20.40;8.38;;;;;;;12.27;100.00;101238.59;5091660;28;20199;-72
2023/05/12 05:19:48;;;;;;;19.63;9.02;;;;;;;12.30;100.00;101234.16;5088822;28;20405;-72
2023/05/12 05:22:24;;;;;;;17.52;9.15;;;;;;;12.37;100.00;101246.06;5091281;28;20143;-74
2023/05/12 05:24:50;;;;;;;16.92;8.20;;;;;;;12.42;100.00;101247.56;5093305;28;20099;-73
2023/05/12 05:27:17;;;;;;;19.95;10.13;;;;;;;12.45;100.00;101244.75;5090843;28;20059;-72
2023/05/12 05:29:44;;;;;;;20.38;10.23;;;;;;;12.48;100.00;101243.13;5088550;28;20465;-73
2023/05/12 05:32:10;;;;;;;20.30;9.10;;;;;;;12.55;100.00;101248.59;5087934;28;20040;-72
2023/05/12 05:34:37;;;;;;;20.70;9.60;;;;;;;12.64;100.00;101257.25;5089026;28;20056;-72
2023/05/12 05:37:03;;;;;;;20.08;9.98;;;;;;;12.69;100.00;101262.38;5087006;28;20047;-72
2023/05/12 05:39:30;;;;;;;22.67;10.27;;;;;;;12.76;100.00;101267.06;5087462;28;20138;-72
2023/05/12 05:41:57;;;;;;;22.70;11.55;;;;;;;12.79;100.00;101260.66;5070819;28;20058;-72
2023/05/12 05:44:24;;;;;;;25.67;11.75;;;;;;;12.77;100.00;101265.84;5075981;28;20079;-72
2023/05/12 05:46:50;;;;;;;24.25;12.15;;;;;;;12.79;100.00;101261.44;5088018;28;20052;-72
2023/05/12 05:49:17;;;;;;;29.02;11.60;;;;;;;12.81;100.00;101272.19;5088761;28;20094;-71
2023/05/12 05:51:43;;;;;;;20.92;11.82;;;;;;;12.82;100.00;101271.75;5089994;28;20682;-73
2023/05/12 05:54:10;;;;;;;19.38;10.52;;;;;;;12.83;100.00;101273.34;5084650;28;20727;-73
2023/05/12 05:56:37;;;;;;;20.70;11.15;;;;;;;12.91;100.00;101274.84;5086464;28;20048;-74
2023/05/12 05:59:04;;;;;;;21.52;10.43;;;;;;;12.96;100.00;101273.56;5087014;28;20725;-72
2023/05/12 06:01:31;;;;;;;19.15;10.35;;;;;;;13.01;100.00;101279.47;5092187;28;20048;-72
2023/05/12 06:03:58;;;;;;;20.42;10.10;;;;;;;13.08;100.00;101279.38;5090396;28;20092;-71
2023/05/12 06:06:25;;;;;;;20.10;9.68;;;;;;;13.12;100.00;101280.09;5063157;28;20113;-72
2023/05/12 06:08:54;;;;;;;18.92;9.30;;;;;;;13.13;100.00;101280.91;5087262;28;20067;-73
2023/05/12 06:11:21;;;;;;;19.83;8.38;;;;;;;13.20;100.00;101270.41;5086598;28;20125;-72
2023/05/12 06:13:47;;;;;;;18.20;8.57;;;;;;;13.28;100.00;101287.84;5068572;28;20060;-74
2023/05/12 06:16:14;;;;;;;17.48;8.93;;;;;;;13.31;100.00;101287.00;5086996;28;20139;-73
2023/05/12 06:18:40;;;;;;;17.90;9.18;;;;;;;13.26;100.00;101290.28;5070278;28;20281;-74
2023/05/12 06:21:07;;;;;;;15.60;7.45;;;;;;;13.27;100.00;101291.84;5068787;28;20044;-72
2023/05/12 06:23:33;;;;;;;19.23;8.50;;;;;;;13.27;100.00;101301.00;5084161;28;20585;-73
2023/05/12 06:26:00;;;;;;;18.58;8.60;;;;;;;13.30;100.00;101297.38;5081392;28;20086;-74
2023/05/12 06:28:26;;;;;;;16.67;7.03;;;;;;;13.35;100.00;101304.50;5091531;28;20048;-73
2023/05/12 06:30:53;;;;;;;17.02;8.25;;;;;;;13.29;100.00;101297.78;5083170;28;20051;-73
2023/05/12 06:33:20;;;;;;;14.85;7.18;;;;;;;13.32;100.00;101308.13;5084825;28;20043;-74
2023/05/12 06:35:47;;;;;;;17.92;7.88;;;;;;;13.31;100.00;101298.97;5088034;28;20054;-73
2023/05/12 06:38:13;;;;;;;16.38;7.68;;;;;;;13.35;100.00;101305.28;5099645;28;20047;-73
2023/05/12 06:40:40;;;;;;;16.15;7.78;;;;;;;13.38;100.00;101306.44;5087971;28;20047;-72
2023/05/12 06:43:06;;;;;;;15.07;7.55;;;;;;;13.41;100.00;101309.19;5085345;28;20147;-72
2023/05/12 06:45:33;;;;;;;13.73;6.78;;;;;;;13.35;100.00;101296.91;5069564;28;20071;-74
2023/05/12 06:48:00;;;;;;;12.32;6.20;;;;;;;13.44;100.00;101313.16;5086706;28;20052;-73
2023/05/12 06:50:27;;;;;;;15.13;7.32;;;;;;;13.45;100.00;101311.94;5087524;28;20063;-73
2023/05/12 06:52:54;;;;;;;17.05;7.22;;;;;;;13.44;100.00;101318.75;5067484;28;20063;-74
2023/05/12 06:55:21;;;;;;;14.35;6.80;;;;;;;13.41;100.00;101322.34;5069592;28;20136;-73
2023/05/12 06:57:50;;;;;;;14.48;7.10;;;;;;;13.44;100.00;101322.31;5067514;28;20490;-73
2023/05/12 07:00:17;;;;;;;15.23;7.00;;;;;;;13.43;100.00;101326.31;5087023;28;20050;-73
2023/05/12 07:02:43;;;;;;;16.48;6.63;;;;;;;13.44;100.00;101321.53;5086834;28;20415;-73
2023/05/12 07:05:11;;;;;;;12.15;5.50;;;;;;;13.48;100.00;101325.88;5086600;28;20048;-73
2023/05/12 07:07:37;;;;;;;14.07;6.63;;;;;;;13.49;100.00;101323.84;5086283;28;20048;-72
2023/05/12 07:10:05;;;;;;;13.68;6.32;;;;;;;13.48;100.00;101328.66;5087457;28;20044;-73
2023/05/12 07:12:31;;;;;;;11.10;5.60;;;;;;;13.45;100.00;101335.09;5081677;28;20139;-74
2023/05/12 07:14:58;;;;;;;12.93;6.03;;;;;;;13.45;100.00;101334.28;5084378;28;20368;-73
2023/05/12 07:17:25;;;;;;;13.57;6.40;;;;;;;13.44;100.00;101341.09;5087295;28;20653;-74
2023/05/12 07:19:51;;;;;;;12.20;5.85;;;;;;;13.42;100.00;101340.69;5081695;28;20056;-73
2023/05/12 07:22:18;;;;;;;15.68;7.20;;;;;;;13.39;100.00;101333.16;5088313;28;20078;-73
2023/05/12 07:24:47;;;;;;;13.70;6.90;;;;;;;13.42;100.00;101338.72;5084436;28;20052;-74
2023/05/12 07:27:14;;;;;;;15.10;6.63;;;;;;;13.41;100.00;101350.28;5083546;28;20052;-74
2023/05/12 07:29:41;;;;;;;14.30;6.45;;;;;;;13.45;100.00;101353.84;5087669;28;20155;-72
2023/05/12 07:32:07;;;;;;;13.07;6.35;;;;;;;13.44;100.00;101349.47;5086706;28;20043;-74
2023/05/12 07:34:34;;;;;;;12.77;5.97;;;;;;;13.41;100.00;101353.06;5085183;28;20044;-73
2023/05/12 07:37:01;;;;;;;13.82;6.40;;;;;;;13.40;100.00;101349.47;5087106;28;20101;-73
2023/05/12 07:39:29;;;;;;;12.52;6.10;;;;;;;13.41;100.00;101353.06;5084532;28;20708;-73
2023/05/12 07:41:57;;;;;;;13.68;5.65;;;;;;;13.32;100.00;101353.59;5087430;28;20144;-73
2023/05/12 07:44:24;;;;;;;13.65;6.35;;;;;;;13.33;100.00;101354.41;5085798;28;20052;-74
2023/05/12 07:46:50;;;;;;;12.38;6.50;;;;;;;13.35;100.00;101361.13;5085579;28;20056;-73
2023/05/12 07:49:17;;;;;;;13.73;6.50;;;;;;;13.33;100.00;101362.78;5087394;28;20048;-73
2023/05/12 07:51:43;;;;;;;13.38;6.40;;;;;;;13.34;100.00;101358.78;5070056;28;20063;-74
2023/05/12 07:54:10;;;;;;;14.98;6.53;;;;;;;13.34;100.00;101362.38;5086829;28;20089;-75
2023/05/12 07:56:36;;;;;;;15.50;7.20;;;;;;;13.39;100.00;101367.47;5086450;28;20509;-74
2023/05/12 07:59:03;;;;;;;13.60;6.50;;;;;;;13.44;100.00;101360.66;5086851;28;20059;-74
2023/05/12 08:01:29;;;;;;;11.57;6.15;;;;;;;13.44;100.00;101367.00;5087202;28;20154;-73
2023/05/12 08:03:56;;;;;;;15.73;6.70;;;;;;;13.49;100.00;101368.53;5085424;28;20048;-74
2023/05/12 08:06:23;;;;;;;12.02;5.85;;;;;;;13.54;100.00;101371.63;5086462;28;20679;-74
2023/05/12 08:08:50;;;;;;;13.95;6.57;;;;;;;13.58;100.00;101368.81;5084648;28;20051;-73
2023/05/12 08:11:16;;;;;;;13.93;6.82;;;;;;;13.65;100.00;101374.28;5070123;28;20422;-73
2023/05/12 08:13:43;;;;;;;12.05;6.00;;;;;;;13.71;100.00;101383.78;5090400;28;20051;-74
2023/05/12 08:16:09;;;;;;;16.45;6.15;;;;;;;13.73;100.00;101384.13;5087846;28;20073;-74
2023/05/12 08:18:36;;;;;;;13.50;5.85;;;;;;;13.77;100.00;101385.66;5083191;28;20851;-72
2023/05/12 08:21:02;;;;;;;9.95;5.40;;;;;;;13.87;100.00;101375.53;5087934;28;20056;-73
2023/05/12 08:23:46;;;;;;;16.08;6.00;;;;;;;13.96;100.00;101378.56;5065902;28;20059;-73
2023/05/12 08:26:25;;;;;;;12.98;5.65;;;;;;;14.05;100.00;101382.38;5086476;28;20060;-74
2023/05/12 08:29:16;;;;;;;10.93;5.43;;;;;;;14.10;100.00;101390.31;5096089;28;20060;-73
2023/05/12 08:32:03;;;;;;;11.93;5.53;;;;;;;14.23;100.00;101385.69;5088326;28;20056;-73
2023/05/12 08:34:29;;;;;;;15.95;6.70;;;;;;;14.37;100.00;101398.63;5090276;28;20063;-74
2023/05/12 08:36:56;;;;;;;13.55;5.97;;;;;;;14.48;100.00;101380.44;5089704;28;20051;-74
2023/05/12 08:39:23;;;;;;;10.90;5.10;;;;;;;14.58;100.00;101381.44;5077139;28;20442;-72
2023/05/12 08:41:55;;;;;;;11.13;5.13;;;;;;;14.68;100.00;101386.06;5077438;28;20544;-73
2023/05/12 08:44:22;;;;;;;12.55;4.85;;;;;;;14.87;100.00;101390.88;5088071;28;20046;-73
2023/05/12 08:46:51;;;;;;;12.15;5.30;;;;;;;14.98;100.00;101391.44;5087524;28;20052;-72
2023/05/12 08:49:21;;;;;;;7.95;4.20;;;;;;;15.09;100.00;101382.84;5086468;28;20048;-72
2023/05/12 08:51:52;;;;;;;7.95;3.97;;;;;;;15.21;100.00;101382.16;5090112;28;20048;-73
2023/05/12 08:54:25;;;;;;;;;;;;;;;15.39;100.00;101385.41;5089205;28;20623;-70
2023/05/12 08:56:53;;;;;;;11.25;5.13;;;;;;;15.54;100.00;101393.06;5088183;28;19924;-72
2023/05/12 08:59:23;;;;;;;10.82;4.80;;;;;;;15.67;100.00;101391.16;5089296;28;20071;-74
2023/05/12 09:01:49;;;;;;;7.32;4.18;;;;;;;15.70;100.00;101387.44;5086667;28;20051;-74
2023/05/12 09:04:16;;;;;;;10.10;4.72;;;;;;;15.73;100.00;101383.78;5088389;28;20051;-74
2023/05/12 09:06:44;;;;;;;10.35;4.75;;;;;;;15.82;100.00;101388.78;5086331;28;20123;-72
2023/05/12 09:09:16;;;;;;;8.90;4.25;;;;;;;15.93;100.00;101384.50;5088163;28;20081;-73
2023/05/12 09:11:48;;;;;;;13.30;4.72;;;;;;;16.07;100.00;101392.53;5089319;28;20044;-73
2023/05/12 09:14:18;;;;;;;10.07;4.57;;;;;;;16.09;100.00;101390.09;5080786;28;20044;-74
2023/05/12 09:16:47;;;;;;;8.20;4.78;;;;;;;16.14;100.00;101389.56;5089386;28;20162;-74
2023/05/12 09:19:19;;;;;;;8.60;4.28;;;;;;;16.27;100.00;101382.03;5087638;28;20040;-75
2023/05/12 09:21:47;;;;;;;8.73;4.72;;;;;;;16.44;100.00;101394.81;5090664;28;20047;-73
2023/05/12 09:24:13;;;;;;;13.73;6.38;;;;;;;16.49;100.00;101390.69;5062917;28;20135;-74
2023/05/12 09:27:06;;;;;;;9.55;4.30;;;;;;;16.56;100.00;101398.91;5087865;28;20056;-72
2023/05/12 09:29:33;;;;;;;9.68;4.22;;;;;;;16.65;100.00;101399.84;5079325;28;20051;-72
2023/05/12 09:32:07;;;;;;;10.65;5.07;;;;;;;16.76;100.00;101399.56;5057274;28;20048;-72
2023/05/12 09:34:37;;;;;;;10.18;5.30;;;;;;;16.86;100.00;101399.28;5070567;28;20050;-73
2023/05/12 09:37:06;;;;;;;10.77;4.45;;;;;;;16.91;100.00;101401.50;5077298;28;20123;-74
2023/05/12 09:39:33;;;;;;;7.38;4.35;;;;;;;16.92;100.00;101403.09;5065069;28;20063;-72
2023/05/12 09:42:00;;;;;;;9.35;4.40;;;;;;;17.02;100.00;101399.19;5063343;28;20044;-72
2023/05/12 09:44:29;;;;;;;8.50;4.60;;;;;;;17.10;100.00;101396.97;5067857;28;20040;-74
2023/05/12 09:47:05;;;;;;;11.02;5.05;;;;;;;17.19;100.00;101406.34;5081836;28;20048;-74
2023/05/12 09:49:31;;;;;;;9.38;4.60;;;;;;;17.34;100.00;101399.06;5088304;28;20044;-75
2023/05/12 09:51:58;;;;;;;13.35;4.50;;;;;;;17.43;100.00;101393.56;5089346;28;20726;-75
2023/05/12 09:54:29;;;;;;;11.70;4.82;;;;;;;17.58;100.00;101407.97;5091372;28;20418;-72
2023/05/12 09:57:06;;;;;;;12.90;5.07;;;;;;;17.63;100.00;101401.00;5091014;28;20054;-74
2023/05/12 09:59:34;;;;;;;10.75;4.63;;;;;;;17.65;100.00;101399.28;5081663;28;20135;-74
2023/05/12 10:02:04;;;;;;;14.68;5.93;;;;;;;17.77;100.00;101392.09;5064653;28;20052;-74
2023/05/12 10:04:40;;;;;;;10.57;4.93;;;;;;;17.82;100.00;101400.75;5082014;28;20052;-73
2023/05/12 10:07:10;;;;;;;9.93;5.47;;;;;;;17.75;100.00;101397.41;5075245;28;21124;-75
2023/05/12 10:09:40;;;;;;;8.30;4.95;;;;;;;17.93;100.00;101397.59;5075718;28;20167;-71
2023/05/12 10:12:08;;;;;;;7.25;4.20;;;;;;;17.95;100.00;101395.16;5080473;28;20081;-74
2023/05/12 10:14:36;;;;;;;9.88;4.53;;;;;;;18.10;100.00;101391.44;5075990;28;20149;-73
2023/05/12 10:17:05;;;;;;;9.02;4.75;;;;;;;18.17;100.00;101391.19;5075857;28;20052;-74
2023/05/12 10:19:34;;;;;;;9.10;4.72;;;;;;;18.38;100.00;101387.63;5061914;28;20478;-74
2023/05/12 10:22:01;;;;;;;10.45;4.97;;;;;;;18.69;100.00;101388.53;5072027;28;21327;-74
2023/05/12 10:24:28;;;;;;;11.60;5.57;;;;;;;18.86;100.00;101389.94;5077667;28;20055;-73
2023/05/12 10:26:58;;;;;;;9.23;4.10;;;;;;;19.04;100.00;101389.28;5073519;28;20061;-75
2023/05/12 10:29:28;;;;;;;8.70;4.55;;;;;;;19.09;100.00;101388.69;5059580;28;20477;-74
2023/05/12 10:31:56;;;;;;;14.07;5.40;;;;;;;19.10;100.00;101387.44;5072115;28;20036;-73
2023/05/12 10:34:35;;;;;;;8.25;3.90;;;;;;;19.02;100.00;101391.75;5080776;28;20056;-73
2023/05/12 10:37:09;;;;;;;8.50;3.97;;;;;;;19.02;100.00;101383.31;5086583;28;20051;-72
2023/05/12 10:39:45;;;;;;;9.60;3.65;;;;;;;19.13;100.00;101389.31;5085327;28;20056;-73
2023/05/12 10:42:15;;;;;;;7.95;3.67;;;;;;;19.21;100.00;101391.41;5085870;28;20054;-74
2023/05/12 10:44:55;;;;;;;8.95;3.80;;;;;;;19.22;100.00;101389.38;5085772;28;20059;-75
2023/05/12 10:47:35;;;;;;;7.00;3.60;;;;;;;19.30;100.00;101387.84;5056840;28;20068;-74
2023/05/12 10:50:02;;;;;;;7.75;3.90;;;;;;;19.27;100.00;101383.13;5082312;28;20043;-74
2023/05/12 10:52:29;;;;;;;9.38;3.72;;;;;;;19.33;100.00;101378.47;5066289;28;20059;-73
2023/05/12 10:55:00;;;;;;;7.30;3.33;;;;;;;19.34;100.00;101380.06;5083492;28;20048;-72
2023/05/12 10:57:27;;;;;;;6.68;3.50;;;;;;;19.45;100.00;101380.44;5086661;28;20510;-73
2023/05/12 10:59:59;;;;;;;6.68;2.95;;;;;;;19.29;100.00;101381.44;5081997;28;20056;-74
2023/05/12 11:02:32;;;;;;;7.28;3.53;;;;;;;19.39;100.00;101380.25;5086549;28;20502;-72
2023/05/12 11:05:03;;;;;;;6.63;3.50;;;;;;;19.50;100.00;101377.81;5067641;28;20087;-73
2023/05/12 11:07:32;;;;;;;6.30;3.38;;;;;;;19.52;100.00;101374.53;5083684;28;20101;-74
2023/05/12 11:10:03;;;;;;;6.18;3.63;;;;;;;19.48;100.00;101380.31;5084109;28;20043;-73